Time;durP1;ratioP1;P1;durP2;ratioP2;P2;SDS_P1;SDS_P2;PMS_P1;PMS_P2;Temp;Humidity;BMP_temperature;BMP_pressure;BME280_temperature;BME280_humidity;BME280_pressure;Samples;Min_cycle;Max_cycle;Signal;HPM_P1;HPM_P2
2023/04/21 00:00:53;;;;;;;;;;;;;;;;;;5094850;28;20330;-73
2023/04/21 00:03:20;;;;;;;;;;;;;;;;;;5094307;28;19960;-74
2023/04/21 00:05:47;;;;;;;;;;;;;;;;;;5094539;28;19955;-75
2023/04/21 00:08:13;;;;;;;;;;;;;;;;;;5094197;28;19966;-74
2023/04/21 00:10:39;;;;;;;;;;;;;;;;;;5094477;28;19956;-73
2023/04/21 00:13:04;;;;;;;;;;;;;;;;;;5094118;28;19977;-74
2023/04/21 00:15:30;;;;;;;;;;;;;;;;;;5094710;28;19963;-75
2023/04/21 00:17:57;;;;;;;;;;;;;;;;;;5094084;28;19963;-73
2023/04/21 00:20:25;;;;;;;;;;;;;;;;;;5094247;28;20374;-75
2023/04/21 00:22:51;;;;;;;;;;;;;;;;;;5094326;28;19962;-74
2023/04/21 00:25:17;;;;;;;;;;;;;;;;;;5094561;28;19955;-74
2023/04/21 00:27:43;;;;;;;;;;;;;;;;;;5093933;28;19962;-73
2023/04/21 00:30:09;;;;;;;;;;;;;;;;;;5094022;28;20027;-73
2023/04/21 00:32:35;;;;;;;;;;;;;;;;;;5093906;28;19956;-73
2023/04/21 00:35:01;;;;;;;;;;;;;;;;;;5094164;28;20390;-74
2023/04/21 00:37:27;;;;;;;;;;;;;;;;;;5094146;28;19956;-74
2023/04/21 00:39:52;;;;;;;;;;;;;;;;;;5094117;28;19959;-73
2023/04/21 00:42:18;;;;;;;;;;;;;;;;;;5093729;28;20026;-74
2023/04/21 00:44:44;;;;;;;;;;;;;;;;;;5094344;28;19961;-74
2023/04/21 00:47:10;;;;;;;;;;;;;;;;;;5094040;28;19991;-73
2023/04/21 00:49:36;;;;;;;;;;;;;;;;;;5094311;28;19955;-73
2023/04/21 00:52:02;;;;;;;;;;;;;;;;;;5093664;28;20476;-74
2023/04/21 00:54:28;;;;;;;;;;;;;;;;;;5093682;28;19956;-73
2023/04/21 00:56:54;;;;;;;;;;;;;;;;;;5094218;28;20301;-72
2023/04/21 00:59:20;;;;;;;;;;;;;;;;;;5093914;28;19962;-74
2023/04/21 01:01:46;;;;;;;;;;;;;;;;;;5093542;28;19975;-74
2023/04/21 01:04:12;;;;;;;;;;;;;;;;;;5097643;28;19966;-73
2023/04/21 01:06:38;;;;;;;;;;;;;;;;;;5098235;28;20047;-73
2023/04/21 01:09:04;;;;;;;;;;;;;;;;;;5097687;28;20000;-74
2023/04/21 01:11:31;;;;;;;;;;;;;;;;;;5097899;28;19959;-74
2023/04/21 01:13:56;;;;;;;;;;;;;;;;;;5097812;28;20415;-73
2023/04/21 01:16:22;;;;;;;;;;;;;;;;;;5097753;28;19966;-73
2023/04/21 01:18:48;;;;;;;;;;;;;;;;;;5097460;28;19956;-74
2023/04/21 01:21:14;;;;;;;;;;;;;;;;;;5097587;28;19975;-74
2023/04/21 01:23:40;;;;;;;;;;;;;;;;;;5097358;28;20045;-74
2023/04/21 01:26:06;;;;;;;;;;;;;;;;;;5097881;28;20008;-73
2023/04/21 01:28:32;;;;;;;;;;;;;;;;;;5097234;28;19959;-73
2023/04/21 01:30:58;;;;;;;;;;;;;;;;;;5097166;28;20032;-74
2023/04/21 01:33:24;;;;;;;;;;;;;;;;;;5097463;28;19970;-74
2023/04/21 01:35:50;;;;;;;;;;;;;;;;;;5097136;28;19956;-74
2023/04/21 01:38:19;;;;;;;;;;;;;;;;;;5097070;28;19955;-74
2023/04/21 01:40:45;;;;;;;;;;;;;;;;;;5097102;28;20458;-73
2023/04/21 01:43:11;;;;;;;;;;;;;;;;;;5096987;28;19955;-73
2023/04/21 01:45:37;;;;;;;;;;;;;;;;;;5095651;28;19966;-73
2023/04/21 01:48:03;;;;;;;;;;;;;;;;;;5095384;28;19959;-74
2023/04/21 01:50:29;;;;;;;;;;;;;;;;;;5096877;28;19981;-72
2023/04/21 01:52:55;;;;;;;;;;;;;;;;;;5096808;28;20036;-74
2023/04/21 01:55:21;;;;;;;;;;;;;;;;;;5097047;28;19959;-73
2023/04/21 01:57:47;;;;;;;;;;;;;;;;;;5095235;28;19959;-73
2023/04/21 02:00:13;;;;;;;;;;;;;;;;;;5096568;28;19956;-73
2023/04/21 02:02:39;;;;;;;;;;;;;;;;;;5096586;28;19980;-73
2023/04/21 02:05:05;;;;;;;;;;;;;;;;;;5096553;28;19955;-74
2023/04/21 02:07:31;;;;;;;;;;;;;;;;;;5095042;28;19960;-73
2023/04/21 02:09:57;;;;;;;;;;;;;;;;;;5096500;28;19962;-74
2023/04/21 02:12:23;;;;;;;;;;;;;;;;;;5096997;28;20391;-75
2023/04/21 02:14:49;;;;;;;;;;;;;;;;;;5095919;28;19994;-73
2023/04/21 02:17:15;;;;;;;;;;;;;;;;;;5096928;28;20388;-74
2023/04/21 02:19:41;;;;;;;;;;;;;;;;;;5096589;28;20465;-74
2023/04/21 02:22:09;;;;;;;;;;;;;;;;;;5096168;28;20026;-74
2023/04/21 02:24:35;;;;;;;;;;;;;;;;;;5096210;28;20005;-73
2023/04/21 02:27:01;;;;;;;;;;;;;;;;;;5096120;28;19955;-73
2023/04/21 02:29:27;;;;;;;;;;;;;;;;;;5096484;28;20016;-74
2023/04/21 02:31:53;;;;;;;;;;;;;;;;;;5096330;28;19955;-74
2023/04/21 02:34:19;;;;;;;;;;;;;;;;;;5096007;28;20012;-73
2023/04/21 02:36:45;;;;;;;;;;;;;;;;;;5096532;28;19979;-74
2023/04/21 02:39:11;;;;;;;;;;;;;;;;;;5096166;28;19967;-73
2023/04/21 02:41:37;;;;;;;;;;;;;;;;;;5095443;28;20089;-74
2023/04/21 02:44:03;;;;;;;;;;;;;;;;;;5096116;28;20004;-74
2023/04/21 02:46:29;;;;;;;;;;;;;;;;;;5095756;28;20312;-73
2023/04/21 02:48:55;;;;;;;;;;;;;;;;;;5095739;28;19962;-73
2023/04/21 02:51:21;;;;;;;;;;;;;;;;;;5095658;28;19954;-74
2023/04/21 02:53:47;;;;;;;;;;;;;;;;;;5096146;28;20399;-73
2023/04/21 02:56:13;;;;;;;;;;;;;;;;;;5095857;28;20009;-73
2023/04/21 02:58:39;;;;;;;;;;;;;;;;;;5095485;28;20471;-74
2023/04/21 03:01:05;;;;;;;;;;;;;;;;;;5095393;28;19982;-74
2023/04/21 03:03:31;;;;;;;;;;;;;;;;;;5095990;28;19955;-74
2023/04/21 03:05:57;;;;;;;;;;;;;;;;;;5095373;28;20438;-75
2023/04/21 03:08:23;;;;;;;;;;;;;;;;;;5095895;28;20308;-74
2023/04/21 03:10:48;;;;;;;;;;;;;;;;;;5095293;28;20437;-74
2023/04/21 03:13:15;;;;;;;;;;;;;;;;;;5095280;28;19993;-75
2023/04/21 03:15:42;;;;;;;;;;;;;;;;;;5095224;28;19955;-74
2023/04/21 03:18:08;;;;;;;;;;;;;;;;;;5095528;28;20391;-74
2023/04/21 03:20:34;;;;;;;;;;;;;;;;;;5095025;28;20001;-73
2023/04/21 03:23:00;;;;;;;;;;;;;;;;;;5095340;28;19955;-73
2023/04/21 03:25:29;;;;;;;;;;;;;;;;;;5094195;28;19955;-74
2023/04/21 03:27:55;;;;;;;;;;;;;;;;;;5094980;28;19955;-74
2023/04/21 03:30:20;;;;;;;;;;;;;;;;;;5094982;28;20014;-74
2023/04/21 03:32:46;;;;;;;;;;;;;;;;;;5094891;28;19955;-73
2023/04/21 03:35:12;;;;;;;;;;;;;;;;;;5094798;28;19966;-74
2023/04/21 03:37:38;;;;;;;;;;;;;;;;;;5094814;28;19955;-74
2023/04/21 03:40:10;;;;;;;;;;;;;;;;;;5094573;28;19999;-75
2023/04/21 03:42:36;;;;;;;;;;;;;;;;;;5095259;28;20029;-75
2023/04/21 03:45:02;;;;;;;;;;;;;;;;;;5094687;28;19994;-75
2023/04/21 03:47:28;;;;;;;;;;;;;;;;;;5095195;28;19959;-74
2023/04/21 03:49:54;;;;;;;;;;;;;;;;;;5094573;28;19955;-74
2023/04/21 03:52:20;;;;;;;;;;;;;;;;;;5095057;28;19955;-74
2023/04/21 03:54:46;;;;;;;;;;;;;;;;;;5094481;28;19978;-75
2023/04/21 03:57:11;;;;;;;;;;;;;;;;;;5094412;28;19962;-73
2023/04/21 03:59:37;;;;;;;;;;;;;;;;;;5094680;28;19955;-73
2023/04/21 04:02:03;;;;;;;;;;;;;;;;;;5094521;28;20049;-74
2023/04/21 04:04:29;;;;;;;;;;;;;;;;;;5094321;28;19955;-73
2023/04/21 04:06:56;;;;;;;;;;;;;;;;;;5094858;28;19955;-74
2023/04/21 04:09:22;;;;;;;;;;;;;;;;;;5094251;28;19955;-73
2023/04/21 04:11:48;;;;;;;;;;;;;;;;;;5094527;28;20393;-73
2023/04/21 04:14:13;;;;;;;;;;;;;;;;;;5094147;28;20374;-74
2023/04/21 04:16:40;;;;;;;;;;;;;;;;;;5094121;28;20042;-73
2023/04/21 04:19:06;;;;;;;;;;;;;;;;;;5092838;28;19966;-73
2023/04/21 04:21:32;;;;;;;;;;;;;;;;;;5093998;28;19975;-75
2023/04/21 04:23:58;;;;;;;;;;;;;;;;;;5094299;28;20299;-73
2023/04/21 04:26:24;;;;;;;;;;;;;;;;;;5093963;28;19955;-73
2023/04/21 04:28:50;;;;;;;;;;;;;;;;;;5094249;28;19955;-75
2023/04/21 04:31:16;;;;;;;;;;;;;;;;;;5093830;28;20458;-74
2023/04/21 04:33:42;;;;;;;;;;;;;;;;;;5093903;28;20063;-74
2023/04/21 04:36:08;;;;;;;;;;;;;;;;;;5093967;28;19963;-74
2023/04/21 04:38:36;;;;;;;;;;;;;;;;;;5093876;28;20332;-74
2023/04/21 04:41:02;;;;;;;;;;;;;;;;;;5093511;28;19995;-74
2023/04/21 04:43:28;;;;;;;;;;;;;;;;;;5094065;28;19961;-74
2023/04/21 04:45:54;;;;;;;;;;;;;;;;;;5093752;28;20410;-74
2023/04/21 04:48:20;;;;;;;;;;;;;;;;;;5094321;28;19955;-75
2023/04/21 04:50:46;;;;;;;;;;;;;;;;;;5093695;28;19994;-74
2023/04/21 04:53:11;;;;;;;;;;;;;;;;;;5094263;28;19956;-74
2023/04/21 04:55:37;;;;;;;;;;;;;;;;;;5093680;28;19990;-73
2023/04/21 04:58:03;;;;;;;;;;;;;;;;;;5093919;28;19978;-74
2023/04/21 05:00:30;;;;;;;;;;;;;;;;;;5093530;28;20046;-74
2023/04/21 05:02:56;;;;;;;;;;;;;;;;;;5093889;28;20372;-74
2023/04/21 05:05:23;;;;;;;;;;;;;;;;;;5093608;28;19959;-73
2023/04/21 05:07:49;;;;;;;;;;;;;;;;;;5093868;28;19956;-73
2023/04/21 05:10:15;;;;;;;;;;;;;;;;;;5093569;28;19963;-75
2023/04/21 05:12:41;;;;;;;;;;;;;;;;;;5093558;28;19998;-74
2023/04/21 05:15:07;;;;;;;;;;;;;;;;;;5093580;28;19955;-73
2023/04/21 05:17:33;;;;;;;;;;;;;;;;;;5093445;28;19959;-74
2023/04/21 05:19:59;;;;;;;;;;;;;;;;;;5093704;28;19977;-74
2023/04/21 05:22:25;;;;;;;;;;;;;;;;;;5093353;28;19975;-75
2023/04/21 05:24:51;;;;;;;;;;;;;;;;;;5093363;28;19987;-73
2023/04/21 05:27:16;;;;;;;;;;;;;;;;;;5093640;28;19962;-74
2023/04/21 05:29:42;;;;;;;;;;;;;;;;;;5093542;28;20493;-74
2023/04/21 05:32:10;;;;;;;;;;;;;;;;;;5094129;28;20005;-74
2023/04/21 05:34:36;;;;;;;;;;;;;;;;;;5093335;28;19962;-74
2023/04/21 05:37:03;;;;;;;;;;;;;;;;;;5094075;28;19985;-74
2023/04/21 05:39:29;;;;;;;;;;;;;;;;;;5091980;28;19959;-73
2023/04/21 05:41:54;;;;;;;;;;;;;;;;;;5092844;28;19999;-73
2023/04/21 05:44:20;;;;;;;;;;;;;;;;;;5093220;28;19955;-75
2023/04/21 05:46:46;;;;;;;;;;;;;;;;;;5093201;28;20410;-74
2023/04/21 05:49:12;;;;;;;;;;;;;;;;;;5095335;28;19978;-74
2023/04/21 05:51:38;;;;;;;;;;;;;;;;;;5097452;28;20351;-74
2023/04/21 05:54:04;;;;;;;;;;;;;;;;;;5096789;28;19990;-74
2023/04/21 05:56:30;;;;;;;;;;;;;;;;;;5096835;28;19955;-74
2023/04/21 05:58:56;;;;;;;;;;;;;;;;;;5096706;28;19955;-74
2023/04/21 06:01:22;;;;;;;;;;;;;;;;;;5097203;28;20331;-73
2023/04/21 06:03:48;;;;;;;;;;;;;;;;;;5096913;28;20046;-74
2023/04/21 06:06:14;;;;;;;;;;;;;;;;;;5096606;28;19955;-75
2023/04/21 06:08:40;;;;;;;;;;;;;;;;;;5096510;28;19955;-73
2023/04/21 06:11:06;;;;;;;;;;;;;;;;;;5096477;28;20053;-76
2023/04/21 06:13:32;;;;;;;;;;;;;;;;;;5096979;28;20388;-75
2023/04/21 06:15:58;;;;;;;;;;;;;;;;;;5096640;28;19959;-74
2023/04/21 06:18:24;;;;;;;;;;;;;;;;;;5096314;28;20335;-74
2023/04/21 06:20:50;;;;;;;;;;;;;;;;;;5096241;28;19975;-75
2023/04/21 06:23:16;;;;;;;;;;;;;;;;;;5096256;28;19956;-75
2023/04/21 06:25:42;;;;;;;;;;;;;;;;;;5096176;28;19963;-75
2023/04/21 06:28:08;;;;;;;;;;;;;;;;;;5096725;28;20320;-74
2023/04/21 06:30:33;;;;;;;;;;;;;;;;;;5096317;28;19970;-75
2023/04/21 06:32:59;;;;;;;;;;;;;;;;;;5096031;28;20430;-73
2023/04/21 06:35:25;;;;;;;;;;;;;;;;;;5096265;28;20002;-73
2023/04/21 06:37:51;;;;;;;;;;;;;;;;;;5095967;28;20029;-74
2023/04/21 06:40:17;;;;;;;;;;;;;;;;;;5095730;28;19987;-73
2023/04/21 06:42:43;;;;;;;;;;;;;;;;;;5096386;28;19983;-72
2023/04/21 06:45:09;;;;;;;;;;;;;;;;;;5096105;28;19959;-74
2023/04/21 06:47:35;;;;;;;;;;;;;;;;;;5096347;28;20308;-73
2023/04/21 06:50:01;;;;;;;;;;;;;;;;;;5096014;28;19963;-74
2023/04/21 06:52:27;;;;;;;;;;;;;;;;;;5096256;28;20307;-74
2023/04/21 06:54:53;;;;;;;;;;;;;;;;;;5095954;28;20088;-74
2023/04/21 06:57:18;;;;;;;;;;;;;;;;;;5095614;28;20373;-74
2023/04/21 06:59:44;;;;;;;;;;;;;;;;;;5095607;28;19982;-75
2023/04/21 07:02:10;;;;;;;;;;;;;;;;;;5095489;28;20010;-75
2023/04/21 07:04:36;;;;;;;;;;;;;;;;;;5095465;28;20457;-76
2023/04/21 07:07:02;;;;;;;;;;;;;;;;;;5095430;28;19998;-76
2023/04/21 07:09:29;;;;;;;;;;;;;;;;;;5095926;28;20314;-76
2023/04/21 07:11:55;;;;;;;;;;;;;;;;;;5094071;28;19959;-76
2023/04/21 07:14:21;;;;;;;;;;;;;;;;;;5095268;28;20322;-76
2023/04/21 07:16:47;;;;;;;;;;;;;;;;;;5095232;28;19956;-76
2023/04/21 07:19:13;;;;;;;;;;;;;;;;;;5095483;28;19960;-76
2023/04/21 07:21:39;;;;;;;;;;;;;;;;;;5095061;28;19978;-74
2023/04/21 07:24:05;;;;;;;;;;;;;;;;;;5095053;28;19958;-75
2023/04/21 07:26:31;;;;;;;;;;;;;;;;;;5095033;28;19955;-76
2023/04/21 07:28:57;;;;;;;;;;;;;;;;;;5095202;28;20400;-75
2023/04/21 07:31:23;;;;;;;;;;;;;;;;;;5094915;28;19970;-75
2023/04/21 07:33:49;;;;;;;;;;;;;;;;;;5095203;28;19954;-76
2023/04/21 07:36:15;;;;;;;;;;;;;;;;;;5095174;28;20292;-75
2023/04/21 07:38:42;;;;;;;;;;;;;;;;;;5095139;28;19955;-74
2023/04/21 07:41:08;;;;;;;;;;;;;;;;;;5094502;28;20512;-75
2023/04/21 07:43:34;;;;;;;;;;;;;;;;;;5094717;28;19963;-74
2023/04/21 07:46:00;;;;;;;;;;;;;;;;;;5094661;28;19955;-74
2023/04/21 07:48:26;;;;;;;;;;;;;;;;;;5094919;28;19959;-75
2023/04/21 07:50:52;;;;;;;;;;;;;;;;;;5094565;28;20301;-74
2023/04/21 07:53:18;;;;;;;;;;;;;;;;;;5094518;28;19955;-74
2023/04/21 07:55:43;;;;;;;;;;;;;;;;;;5094765;28;19962;-75
2023/04/21 07:58:10;;;;;;;;;;;;;;;;;;5094706;28;19984;-74
2023/04/21 08:00:35;;;;;;;;;;;;;;;;;;5094340;28;20009;-75
2023/04/21 08:03:01;;;;;;;;;;;;;;;;;;5094365;28;20105;-74
2023/04/21 08:05:28;;;;;;;;;;;;;;;;;;5094317;28;19954;-75
2023/04/21 08:07:54;;;;;;;;;;;;;;;;;;5094593;28;20349;-74
2023/04/21 08:10:20;;;;;;;;;;;;;;;;;;5094489;28;20434;-74
2023/04/21 08:12:46;;;;;;;;;;;;;;;;;;5093809;28;20001;-74
2023/04/21 08:15:12;;;;;;;;;;;;;;;;;;5094457;28;20054;-75
2023/04/21 08:17:38;;;;;;;;;;;;;;;;;;5094148;28;20464;-72
2023/04/21 08:20:03;;;;;;;;;;;;;;;;;;5094098;28;19955;-76
2023/04/21 08:22:30;;;;;;;;;;;;;;;;;;5094281;28;19989;-74
2023/04/21 08:24:56;;;;;;;;;;;;;;;;;;5094334;28;20002;-74
2023/04/21 08:27:22;;;;;;;;;;;;;;;;;;5094546;28;19955;-73
2023/04/21 08:29:47;;;;;;;;;;;;;;;;;;5093834;28;19973;-74
2023/04/21 08:32:13;;;;;;;;;;;;;;;;;;5094231;28;19955;-74
2023/04/21 08:34:39;;;;;;;;;;;;;;;;;;5094203;28;19954;-73
2023/04/21 08:37:05;;;;;;;;;;;;;;;;;;5094418;28;19956;-72
2023/04/21 08:39:31;;;;;;;;;;;;;;;;;;5093863;28;19955;-73
2023/04/21 08:41:57;;;;;;;;;;;;;;;;;;5093404;28;20399;-73
2023/04/21 08:44:23;;;;;;;;;;;;;;;;;;5094077;28;19959;-72
2023/04/21 08:46:50;;;;;;;;;;;;;;;;;;5093783;28;20319;-72
2023/04/21 08:49:16;;;;;;;;;;;;;;;;;;5094040;28;19955;-72
2023/04/21 08:51:41;;;;;;;;;;;;;;;;;;5092459;28;19966;-73
2023/04/21 08:54:07;;;;;;;;;;;;;;;;;;5094292;28;19997;-71
2023/04/21 08:56:33;;;;;;;;;;;;;;;;;;5092474;28;19959;-71
2023/04/21 08:58:59;;;;;;;;;;;;;;;;;;5094279;28;19956;-72
2023/04/21 09:01:25;;;;;;;;;;;;;;;;;;5093615;28;19982;-73
2023/04/21 09:03:51;;;;;;;;;;;;;;;;;;5094270;28;20008;-75
2023/04/21 09:06:17;;;;;;;;;;;;;;;;;;5093947;28;20042;-73
2023/04/21 09:08:43;;;;;;;;;;;;;;;;;;5093586;28;20411;-71
2023/04/21 09:11:09;;;;;;;;;;;;;;;;;;5093837;28;19960;-72
2023/04/21 09:13:34;;;;;;;;;;;;;;;;;;5093556;28;19955;-72
2023/04/21 09:16:00;;;;;;;;;;;;;;;;;;5094027;28;19982;-71
2023/04/21 09:18:26;;;;;;;;;;;;;;;;;;5093541;28;19962;-73
2023/04/21 09:20:52;;;;;;;;;;;;;;;;;;5093679;28;19983;-75
2023/04/21 09:23:18;;;;;;;;;;;;;;;;;;5094298;28;20047;-77
2023/04/21 09:25:44;;;;;;;;;;;;;;;;;;5097415;28;20349;-73
2023/04/21 09:28:10;;;;;;;;;;;;;;;;;;5097350;28;19955;-72
2023/04/21 09:30:36;;;;;;;;;;;;;;;;;;5097210;28;19969;-74
2023/04/21 09:33:02;;;;;;;;;;;;;;;;;;5097545;28;19978;-74
2023/04/21 09:35:28;;;;;;;;;;;;;;;;;;5097178;28;20408;-75
2023/04/21 09:37:54;;;;;;;;;;;;;;;;;;5097115;28;19954;-75
2023/04/21 09:40:20;;;;;;;;;;;;;;;;;;5095568;28;20531;-75
2023/04/21 09:42:46;;;;;;;;;;;;;;;;;;5096988;28;19975;-75
2023/04/21 09:45:13;;;;;;;;;;;;;;;;;;5097559;28;19955;-74
2023/04/21 09:47:39;;;;;;;;;;;;;;;;;;5095669;28;19966;-74
2023/04/21 09:50:05;;;;;;;;;;;;;;;;;;5097204;28;19955;-73
2023/04/21 09:52:31;;;;;;;;;;;;;;;;;;5096858;28;20008;-73
2023/04/21 09:54:58;;;;;;;;;;;;;;;;;;5097100;28;19955;-74
2023/04/21 09:57:24;;;;;;;;;;;;;;;;;;5095270;28;20029;-74
2023/04/21 09:59:50;;;;;;;;;;;;;;;;;;5096744;28;19985;-75
2023/04/21 10:02:16;;;;;;;;;;;;;;;;;;5097172;28;20461;-75
2023/04/21 10:04:41;;;;;;;;;;;;;;;;;;5096943;28;20116;-75
2023/04/21 10:07:07;;;;;;;;;;;;;;;;;;5096586;28;19955;-74
2023/04/21 10:09:33;;;;;;;;;;;;;;;;;;5096566;28;20013;-74
2023/04/21 10:11:59;;;;;;;;;;;;;;;;;;5096508;28;20002;-74
2023/04/21 10:14:25;;;;;;;;;;;;;;;;;;5096986;28;20411;-73
2023/04/21 10:16:51;;;;;;;;;;;;;;;;;;5096695;28;19962;-75
2023/04/21 10:19:17;;;;;;;;;;;;;;;;;;5096356;28;19962;-75
2023/04/21 10:21:43;;;;;;;;;;;;;;;;;;5096508;28;20018;-74
2023/04/21 10:24:08;;;;;;;;;;;;;;;;;;5096534;28;20476;-74
2023/04/21 10:26:35;;;;;;;;;;;;;;;;;;5096218;28;19955;-75
2023/04/21 10:29:00;;;;;;;;;;;;;;;;;;5096605;28;20046;-75
2023/04/21 10:31:28;;;;;;;;;;;;;;;;;;5096347;28;20045;-74
2023/04/21 10:33:54;;;;;;;;;;;;;;;;;;5095974;28;19956;-75
2023/04/21 10:36:19;;;;;;;;;;;;;;;;;;5096009;28;20362;-75
2023/04/21 10:38:45;;;;;;;;;;;;;;;;;;5096074;28;20025;-74
2023/04/21 10:41:11;;;;;;;;;;;;;;;;;;5095872;28;19990;-75
2023/04/21 10:43:37;;;;;;;;;;;;;;;;;;5095937;28;19955;-74
2023/04/21 10:46:03;;;;;;;;;;;;;;;;;;5096125;28;19997;-74
2023/04/21 10:48:29;;;;;;;;;;;;;;;;;;5095807;28;19961;-74
2023/04/21 10:50:55;;;;;;;;;;;;;;;;;;5095783;28;19955;-74
2023/04/21 10:53:21;;;;;;;;;;;;;;;;;;5095727;28;20406;-75
2023/04/21 10:55:46;;;;;;;;;;;;;;;;;;5095685;28;19989;-75
2023/04/21 10:58:12;;;;;;;;;;;;;;;;;;5095897;28;20328;-74
2023/04/21 11:00:38;;;;;;;;;;;;;;;;;;5095743;28;20001;-74
2023/04/21 11:03:04;;;;;;;;;;;;;;;;;;5095508;28;19995;-74
2023/04/21 11:05:30;;;;;;;;;;;;;;;;;;5095503;28;19999;-74
2023/04/21 11:07:56;;;;;;;;;;;;;;;;;;5095423;28;19955;-73
2023/04/21 11:10:22;;;;;;;;;;;;;;;;;;5095357;28;20422;-74
2023/04/21 11:12:48;;;;;;;;;;;;;;;;;;5095351;28;20004;-75
2023/04/21 11:15:15;;;;;;;;;;;;;;;;;;5095874;28;20387;-74
2023/04/21 11:17:42;;;;;;;;;;;;;;;;;;5095593;28;20469;-74
2023/04/21 11:20:08;;;;;;;;;;;;;;;;;;5095225;28;20005;-73
2023/04/21 11:22:34;;;;;;;;;;;;;;;;;;5093790;28;19978;-73
2023/04/21 11:25:00;;;;;;;;;;;;;;;;;;5095629;28;19955;-73
2023/04/21 11:27:26;;;;;;;;;;;;;;;;;;5095041;28;20411;-74
2023/04/21 11:29:52;;;;;;;;;;;;;;;;;;5095471;28;19971;-73
2023/04/21 11:32:18;;;;;;;;;;;;;;;;;;5094948;28;19955;-74
2023/04/21 11:34:44;;;;;;;;;;;;;;;;;;5095205;28;19955;-73
2023/04/21 11:37:10;;;;;;;;;;;;;;;;;;5094845;28;19959;-75
2023/04/21 11:39:36;;;;;;;;;;;;;;;;;;5094781;28;19962;-74
2023/04/21 11:42:01;;;;;;;;;;;;;;;;;;5094290;28;20004;-74
2023/04/21 11:44:27;;;;;;;;;;;;;;;;;;5094710;28;20376;-74
2023/04/21 11:46:53;;;;;;;;;;;;;;;;;;5094228;28;19966;-74
2023/04/21 11:49:20;;;;;;;;;;;;;;;;;;5094612;28;20008;-75
2023/04/21 11:51:46;;;;;;;;;;;;;;;;;;5094874;28;20395;-75
2023/04/21 11:54:12;;;;;;;;;;;;;;;;;;5094841;28;20002;-74
2023/04/21 11:56:38;;;;;;;;;;;;;;;;;;5094496;28;19962;-74
2023/04/21 11:59:04;;;;;;;;;;;;;;;;;;5094417;28;20312;-74
2023/04/21 12:01:29;;;;;;;;;;;;;;;;;;5094905;28;20085;-74
2023/04/21 12:03:55;;;;;;;;;;;;;;;;;;5094344;28;19955;-74
2023/04/21 12:06:21;;;;;;;;;;;;;;;;;;5094581;28;20107;-74
2023/04/21 12:08:47;;;;;;;;;;;;;;;;;;5094284;28;20021;-74
2023/04/21 12:11:13;;;;;;;;;;;;;;;;;;5094258;28;20343;-75
2023/04/21 12:13:39;;;;;;;;;;;;;;;;;;5094209;28;19958;-73
2023/04/21 12:16:05;;;;;;;;;;;;;;;;;;5094449;28;19962;-75
2023/04/21 12:18:32;;;;;;;;;;;;;;;;;;5094425;28;20042;-74
2023/04/21 12:20:58;;;;;;;;;;;;;;;;;;5094044;28;19975;-73
2023/04/21 12:23:23;;;;;;;;;;;;;;;;;;5094372;28;19962;-73
2023/04/21 12:25:50;;;;;;;;;;;;;;;;;;5094065;28;20323;-74
2023/04/21 12:28:17;;;;;;;;;;;;;;;;;;5094027;28;20008;-73
2023/04/21 12:30:42;;;;;;;;;;;;;;;;;;5094277;28;20015;-72
2023/04/21 12:33:08;;;;;;;;;;;;;;;;;;5093939;28;20038;-74
2023/04/21 12:35:34;;;;;;;;;;;;;;;;;;5093943;28;20036;-74
2023/04/21 12:38:00;;;;;;;;;;;;;;;;;;5094476;28;20399;-75
2023/04/21 12:40:26;;;;;;;;;;;;;;;;;;5093677;28;19991;-74
2023/04/21 12:42:52;;;;;;;;;;;;;;;;;;5094378;28;19975;-73
2023/04/21 12:45:18;;;;;;;;;;;;;;;;;;5093892;28;19993;-73
2023/04/21 12:47:44;;;;;;;;;;;;;;;;;;5094010;28;19955;-74
2023/04/21 12:50:11;;;;;;;;;;;;;;;;;;5093757;28;19990;-74
2023/04/21 12:52:37;;;;;;;;;;;;;;;;;;5094026;28;19962;-75
2023/04/21 12:55:03;;;;;;;;;;;;;;;;;;5093699;28;19959;-74
2023/04/21 12:57:30;;;;;;;;;;;;;;;;;;5095292;28;19955;-73
2023/04/21 12:59:56;;;;;;;;;;;;;;;;;;5098198;28;19955;-74
2023/04/21 13:02:22;;;;;;;;;;;;;;;;;;5097751;28;20020;-75
2023/04/21 13:04:48;;;;;;;;;;;;;;;;;;5098055;28;19995;-75
2023/04/21 13:07:15;;;;;;;;;;;;;;;;;;5097746;28;20475;-74
2023/04/21 13:09:40;;;;;;;;;;;;;;;;;;5097698;28;20422;-74
2023/04/21 13:12:06;;;;;;;;;;;;;;;;;;5098222;28;19962;-75
2023/04/21 13:14:32;;;;;;;;;;;;;;;;;;5097627;28;19963;-74
2023/04/21 13:16:58;;;;;;;;;;;;;;;;;;5097857;28;19962;-75
2023/04/21 13:19:24;;;;;;;;;;;;;;;;;;5097519;28;19955;-74
2023/04/21 13:21:50;;;;;;;;;;;;;;;;;;5097433;28;19975;-74
2023/04/21 13:24:16;;;;;;;;;;;;;;;;;;5098050;28;20466;-74
2023/04/21 13:26:42;;;;;;;;;;;;;;;;;;5097338;28;19994;-74
2023/04/21 13:29:08;;;;;;;;;;;;;;;;;;5097286;28;20054;-74
2023/04/21 13:31:34;;;;;;;;;;;;;;;;;;5097576;28;19963;-74
2023/04/21 13:34:00;;;;;;;;;;;;;;;;;;5097229;28;19955;-74
2023/04/21 13:36:26;;;;;;;;;;;;;;;;;;5097212;28;20004;-75
2023/04/21 13:38:54;;;;;;;;;;;;;;;;;;5097704;28;19956;-75
2023/04/21 13:41:20;;;;;;;;;;;;;;;;;;5095555;28;19999;-74
2023/04/21 13:43:46;;;;;;;;;;;;;;;;;;5097072;28;19962;-73
2023/04/21 13:46:13;;;;;;;;;;;;;;;;;;5097302;28;20000;-74
2023/04/21 13:48:39;;;;;;;;;;;;;;;;;;5096920;28;19955;-75
2023/04/21 13:51:05;;;;;;;;;;;;;;;;;;5097165;28;20004;-74
2023/04/21 13:53:31;;;;;;;;;;;;;;;;;;5096845;28;20042;-74
2023/04/21 13:55:58;;;;;;;;;;;;;;;;;;5096771;28;19994;-74
2023/04/21 13:58:24;;;;;;;;;;;;;;;;;;5096644;28;19966;-75
2023/04/21 14:00:50;;;;;;;;;;;;;;;;;;5096768;28;19954;-74
2023/04/21 14:03:16;;;;;;;;;;;;;;;;;;5096591;28;20026;-74
2023/04/21 14:05:41;;;;;;;;;;;;;;;;;;5096834;28;19955;-75
2023/04/21 14:08:07;;;;;;;;;;;;;;;;;;5096590;28;19955;-75
2023/04/21 14:10:33;;;;;;;;;;;;;;;;;;5096354;28;19958;-74
2023/04/21 14:12:59;;;;;;;;;;;;;;;;;;5096798;28;20004;-74
2023/04/21 14:15:25;;;;;;;;;;;;;;;;;;5096436;28;19955;-74
2023/04/21 14:17:51;;;;;;;;;;;;;;;;;;5097012;28;19962;-74
2023/04/21 14:20:17;;;;;;;;;;;;;;;;;;5096244;28;20327;-74
2023/04/21 14:22:43;;;;;;;;;;;;;;;;;;5096247;28;19978;-74
2023/04/21 14:25:11;;;;;;;;;;;;;;;;;;5096212;28;20009;-73
2023/04/21 14:27:37;;;;;;;;;;;;;;;;;;5096614;28;19956;-73
2023/04/21 14:30:03;;;;;;;;;;;;;;;;;;5096113;28;20061;-72
2023/04/21 14:32:29;;;;;;;;;;;;;;;;;;5096436;28;19995;-73
2023/04/21 14:34:57;;;;;;;;;;;;;;;;;;5096121;28;20361;-73
2023/04/21 14:37:23;;;;;;;;;;;;;;;;;;5096388;28;19959;-72
2023/04/21 14:39:49;;;;;;;;;;;;;;;;;;5095997;28;19955;-73
2023/04/21 14:42:15;;;;;;;;;;;;;;;;;;5095736;28;20374;-73
2023/04/21 14:44:41;;;;;;;;;;;;;;;;;;5095885;28;19956;-73
2023/04/21 14:47:07;;;;;;;;;;;;;;;;;;5095867;28;20005;-73
2023/04/21 14:49:33;;;;;;;;;;;;;;;;;;5096116;28;19965;-74
2023/04/21 14:51:59;;;;;;;;;;;;;;;;;;5095769;28;19977;-73
2023/04/21 14:54:25;;;;;;;;;;;;;;;;;;5095745;28;19959;-73
2023/04/21 14:56:51;;;;;;;;;;;;;;;;;;5095704;28;19962;-73
2023/04/21 14:59:17;;;;;;;;;;;;;;;;;;5095919;28;20038;-72
2023/04/21 15:01:43;;;;;;;;;;;;;;;;;;5095477;28;19979;-73
2023/04/21 15:04:09;;;;;;;;;;;;;;;;;;5096031;28;19959;-73
2023/04/21 15:06:35;;;;;;;;;;;;;;;;;;5095768;28;19997;-73
2023/04/21 15:09:03;;;;;;;;;;;;;;;;;;5095967;28;20096;-73
2023/04/21 15:11:28;;;;;;;;;;;;;;;;;;5095364;28;19955;-72
2023/04/21 15:13:54;;;;;;;;;;;;;;;;;;5095341;28;19955;-73
2023/04/21 15:16:20;;;;;;;;;;;;;;;;;;5095889;28;19955;-73
2023/04/21 15:18:46;;;;;;;;;;;;;;;;;;5095289;28;19955;-73
2023/04/21 15:21:12;;;;;;;;;;;;;;;;;;5094604;28;19975;-73
2023/04/21 15:23:38;;;;;;;;;;;;;;;;;;5095115;28;20403;-72
2023/04/21 15:26:04;;;;;;;;;;;;;;;;;;5095074;28;19955;-73
2023/04/21 15:28:31;;;;;;;;;;;;;;;;;;5095030;28;19959;-72
2023/04/21 15:30:57;;;;;;;;;;;;;;;;;;5094931;28;19972;-73
2023/04/21 15:33:23;;;;;;;;;;;;;;;;;;5094948;28;19966;-72
2023/04/21 15:35:50;;;;;;;;;;;;;;;;;;5095480;28;20010;-73
2023/04/21 15:38:16;;;;;;;;;;;;;;;;;;5094911;28;19955;-74
2023/04/21 15:40:42;;;;;;;;;;;;;;;;;;5094803;28;19991;-73
2023/04/21 15:43:07;;;;;;;;;;;;;;;;;;5095259;28;20339;-73
2023/04/21 15:45:33;;;;;;;;;;;;;;;;;;5094684;28;19959;-72
2023/04/21 15:47:59;;;;;;;;;;;;;;;;;;5095204;28;19956;-73
2023/04/21 15:50:25;;;;;;;;;;;;;;;;;;5094657;28;19999;-74
2023/04/21 15:52:51;;;;;;;;;;;;;;;;;;5095169;28;20001;-73
2023/04/21 15:55:17;;;;;;;;;;;;;;;;;;5094468;28;19955;-73
2023/04/21 15:57:43;;;;;;;;;;;;;;;;;;5094512;28;20358;-73
2023/04/21 16:00:09;;;;;;;;;;;;;;;;;;5094466;28;19974;-73
2023/04/21 16:02:35;;;;;;;;;;;;;;;;;;5094630;28;19975;-73
2023/04/21 16:05:01;;;;;;;;;;;;;;;;;;5094354;28;19955;-73
2023/04/21 16:07:27;;;;;;;;;;;;;;;;;;5094578;28;19963;-73
2023/04/21 16:09:53;;;;;;;;;;;;;;;;;;5094311;28;19959;-72
2023/04/21 16:12:19;;;;;;;;;;;;;;;;;;5094569;28;19962;-72
2023/04/21 16:14:45;;;;;;;;;;;;;;;;;;5094244;28;19955;-73
2023/04/21 16:17:11;;;;;;;;;;;;;;;;;;5094249;28;20430;-73
2023/04/21 16:19:41;;;;;;;;;;;;;;;;;;5094711;28;19955;-73
2023/04/21 16:22:07;;;;;;;;;;;;;;;;;;5094315;28;19978;-73
2023/04/21 16:24:33;;;;;;;;;;;;;;;;;;5094713;28;19962;-73
2023/04/21 16:26:58;;;;;;;;;;;;;;;;;;5094060;28;19955;-73
2023/04/21 16:29:24;;;;;;;;;;;;;;;;;;5094038;28;20053;-73
2023/04/21 16:31:50;;;;;;;;;;;;;;;;;;5093687;28;19955;-73
2023/04/21 16:34:16;;;;;;;;;;;;;;;;;;5093965;28;20049;-73
2023/04/21 16:36:42;;;;;;;;;;;;;;;;;;5094533;28;19956;-73